Time;durP1;ratioP1;P1;durP2;ratioP2;P2;SDS_P1;SDS_P2;PMS_P1;PMS_P2;Temp;Humidity;BMP_temperature;BMP_pressure;BME280_temperature;BME280_humidity;BME280_pressure;Samples;Min_cycle;Max_cycle;Signal;HPM_P1;HPM_P2
2022/10/07 00:01:34;;;;;;;7.80;1.83;;;12.90;99.90;;;;;;5090616;28;20133;-39
2022/10/07 00:03:59;;;;;;;22.17;2.60;;;12.90;99.90;;;;;;5091835;28;20028;-34
2022/10/07 00:06:25;;;;;;;8.52;2.20;;;12.90;99.90;;;;;;5089082;28;20028;-38
2022/10/07 00:08:53;;;;;;;8.70;1.63;;;12.90;99.90;;;;;;5082714;28;20028;-39
2022/10/07 00:11:21;;;;;;;6.20;2.47;;;12.90;99.90;;;;;;5079322;28;20028;-34
2022/10/07 00:13:51;;;;;;;15.38;2.75;;;12.90;99.90;;;;;;5096147;28;20081;-35
2022/10/07 00:16:23;;;;;;;9.32;1.80;;;12.80;99.90;;;;;;5085416;28;20016;-39
2022/10/07 00:18:50;;;;;;;18.35;2.15;;;12.80;99.90;;;;;;5081544;28;20039;-36
2022/10/07 00:21:17;;;;;;;5.72;1.38;;;12.80;99.90;;;;;;5097881;28;20036;-43
2022/10/07 00:23:44;;;;;;;10.48;1.63;;;12.80;99.90;;;;;;5098693;28;20468;-33
2022/10/07 00:26:14;;;;;;;9.38;2.17;;;12.80;99.90;;;;;;5093317;28;20023;-40
2022/10/07 00:28:40;;;;;;;8.45;2.15;;;12.80;99.90;;;;;;5080100;28;20485;-41
2022/10/07 00:31:09;;;;;;;7.85;1.92;;;12.80;99.90;;;;;;5097652;28;20069;-35
2022/10/07 00:33:37;;;;;;;3.17;1.40;;;12.80;99.90;;;;;;5081315;28;20048;-34
2022/10/07 00:36:06;;;;;;;;;;;12.80;99.90;;;;;;5088800;28;20020;-41
2022/10/07 00:38:32;;;;;;;2.83;1.88;;;12.70;99.90;;;;;;5060662;28;19908;-34
2022/10/07 00:40:57;;;;;;;20.23;2.15;;;12.70;99.90;;;;;;5067054;28;20358;-34
2022/10/07 00:43:30;;;;;;;4.70;1.52;;;12.70;99.90;;;;;;5088471;28;20040;-34
2022/10/07 00:46:10;;;;;;;9.23;2.05;;;12.60;99.90;;;;;;5095055;28;20396;-32
2022/10/07 00:48:38;;;;;;;12.80;3.25;;;12.60;99.90;;;;;;5086063;28;20538;-32
2022/10/07 00:51:03;;;;;;;;;;;12.60;99.90;;;;;;5093270;28;20491;-34
2022/10/07 00:53:32;;;;;;;10.13;2.15;;;12.60;99.90;;;;;;5092676;28;20046;-38
2022/10/07 00:56:01;;;;;;;12.10;2.28;;;12.60;99.90;;;;;;5094173;28;20032;-36
2022/10/07 00:58:29;;;;;;;12.88;1.83;;;12.50;99.90;;;;;;5078667;28;20048;-31
2022/10/07 01:00:55;;;;;;;9.85;2.33;;;12.50;99.90;;;;;;5077730;28;20129;-32
2022/10/07 01:03:21;;;;;;;9.73;2.03;;;12.50;99.90;;;;;;5078778;28;20024;-34
2022/10/07 01:05:46;;;;;;;5.07;1.65;;;12.50;99.90;;;;;;5093190;28;20365;-36
2022/10/07 01:08:15;;;;;;;19.55;2.78;;;12.50;99.90;;;;;;5088532;28;20150;-31
2022/10/07 01:10:58;;;;;;;14.38;2.33;;;12.50;99.90;;;;;;5087619;28;20103;-34
2022/10/07 01:13:35;;;;;;;11.93;2.17;;;12.50;99.90;;;;;;5081207;28;20142;-36
2022/10/07 01:16:29;;;;;;;8.03;2.17;;;12.50;99.90;;;;;;5070260;28;20040;-37
2022/10/07 01:19:03;;;;;;;11.95;2.00;;;12.50;99.90;;;;;;5084851;28;20412;-41
2022/10/07 01:22:06;;;;;;;5.97;2.22;;;12.50;99.90;;;;;;5090853;28;20120;-40
2022/10/07 01:25:11;;;;;;;14.82;2.42;;;12.40;99.90;;;;;;5092163;28;20494;-41
2022/10/07 01:27:42;;;;;;;9.70;2.63;;;12.40;99.90;;;;;;5077387;28;20071;-59
2022/10/07 01:30:09;;;;;;;13.85;3.63;;;12.40;99.90;;;;;;5090522;28;20081;-39
2022/10/07 01:32:53;;;;;;;10.57;2.38;;;12.30;99.90;;;;;;5087621;28;20420;-40
2022/10/07 01:35:24;;;;;;;7.63;2.53;;;12.30;99.90;;;;;;5093769;28;20441;-53
2022/10/07 01:37:54;;;;;;;5.25;1.92;;;12.20;99.90;;;;;;5089932;28;20144;-34
2022/10/07 01:40:45;;;;;;;8.05;2.20;;;12.20;99.90;;;;;;5089919;28;20480;-35
2022/10/07 01:43:31;;;;;;;8.35;2.00;;;12.20;99.90;;;;;;5083881;28;20020;-37
2022/10/07 01:45:57;;;;;;;6.90;1.98;;;12.20;99.90;;;;;;5075542;28;20021;-32
2022/10/07 01:48:22;;;;;;;8.95;2.50;;;12.10;99.90;;;;;;5087422;28;20034;-37
2022/10/07 01:50:50;;;;;;;9.07;2.50;;;12.10;99.90;;;;;;5089823;28;20038;-38
2022/10/07 01:53:39;;;;;;;9.23;2.20;;;12.10;99.90;;;;;;5093776;28;20028;-41
2022/10/07 01:56:34;;;;;;;13.55;3.10;;;12.10;99.90;;;;;;5091054;28;20033;-37
2022/10/07 01:59:06;;;;;;;14.75;3.28;;;12.10;99.90;;;;;;5082662;28;20085;-35
2022/10/07 02:01:37;;;;;;;16.80;3.15;;;12.10;99.90;;;;;;5081191;28;20028;-36
2022/10/07 02:04:28;;;;;;;11.13;2.05;;;12.00;99.90;;;;;;5087531;28;20564;-39
2022/10/07 02:07:32;;;;;;;12.45;2.53;;;12.00;99.90;;;;;;5083993;28;20036;-38
2022/10/07 02:10:10;;;;;;;14.40;2.47;;;12.00;99.90;;;;;;5066093;28;20040;-40
2022/10/07 02:12:47;;;;;;;9.43;2.42;;;12.00;99.90;;;;;;5087391;28;20055;-40
2022/10/07 02:15:23;;;;;;;14.95;2.42;;;12.10;99.90;;;;;;5087736;28;20469;-37
2022/10/07 02:17:53;;;;;;;11.70;2.88;;;12.00;99.90;;;;;;5082434;28;20520;-39
2022/10/07 02:20:24;;;;;;;10.93;2.78;;;12.00;99.90;;;;;;5092421;28;20388;-39
2022/10/07 02:22:52;;;;;;;9.80;2.30;;;12.00;99.90;;;;;;5091988;28;20496;-39
2022/10/07 02:25:20;;;;;;;10.45;2.80;;;12.00;99.90;;;;;;5080840;28;20024;-40
2022/10/07 02:27:48;;;;;;;16.40;3.53;;;12.00;99.90;;;;;;5086809;28;20510;-40
2022/10/07 02:30:17;;;;;;;15.40;2.30;;;12.00;99.90;;;;;;5083037;28;20502;-38
2022/10/07 02:32:55;;;;;;;10.23;3.85;;;12.00;99.90;;;;;;5079473;28;20033;-39
2022/10/07 02:35:53;;;;;;;11.18;2.92;;;11.90;99.90;;;;;;5084974;28;20488;-41
2022/10/07 02:38:20;;;;;;;12.75;3.80;;;11.90;99.90;;;;;;5086408;28;20521;-40
2022/10/07 02:40:45;;;;;;;12.35;2.55;;;11.90;99.90;;;;;;5081757;28;20016;-53
2022/10/07 02:43:27;;;;;;;8.77;2.63;;;12.00;99.90;;;;;;5089762;28;20162;-39
2022/10/07 02:46:06;;;;;;;15.48;2.70;;;11.90;99.90;;;;;;5067121;28;20031;-43
2022/10/07 02:48:38;;;;;;;5.55;2.33;;;11.90;99.90;;;;;;5085568;28;20032;-41
2022/10/07 02:51:09;;;;;;;13.95;3.05;;;11.90;99.90;;;;;;5086006;28;20489;-43
2022/10/07 02:53:36;;;;;;;8.43;2.65;;;11.90;99.90;;;;;;5089208;28;20023;-40
2022/10/07 02:56:04;;;;;;;9.75;2.30;;;11.90;99.90;;;;;;5080151;28;20480;-39
2022/10/07 02:58:29;;;;;;;9.55;2.70;;;11.90;99.90;;;;;;5091233;28;20012;-39
2022/10/07 03:00:58;;;;;;;18.55;3.13;;;11.90;99.90;;;;;;5085214;28;20031;-39
2022/10/07 03:03:25;;;;;;;14.88;3.30;;;11.90;99.90;;;;;;5092918;28;20039;-63
2022/10/07 03:05:51;;;;;;;10.27;2.67;;;11.90;99.90;;;;;;5081016;28;20032;-38
2022/10/07 03:08:20;;;;;;;14.68;4.10;;;11.90;99.90;;;;;;5086789;28;20591;-49
2022/10/07 03:10:46;;;;;;;22.65;4.05;;;11.90;99.90;;;;;;5077415;28;20527;-31
2022/10/07 03:13:11;;;;;;;19.42;3.30;;;11.90;99.90;;;;;;5082498;28;20056;-33
2022/10/07 03:15:39;;;;;;;17.55;3.20;;;11.90;99.90;;;;;;5080497;28;20069;-33
2022/10/07 03:18:05;;;;;;;9.45;2.53;;;11.90;99.90;;;;;;5081542;28;20090;-37
2022/10/07 03:20:31;;;;;;;10.98;2.97;;;11.90;99.90;;;;;;5080726;28;20019;-34
2022/10/07 03:22:58;;;;;;;17.70;2.95;;;11.80;99.90;;;;;;5070517;28;20383;-40
2022/10/07 03:25:25;;;;;;;11.40;2.97;;;11.90;99.90;;;;;;5062324;28;20047;-35
2022/10/07 03:27:54;;;;;;;12.93;2.53;;;11.80;99.90;;;;;;5092034;28;20016;-31
2022/10/07 03:30:21;;;;;;;14.55;3.08;;;11.80;99.90;;;;;;5091312;28;20390;-32
2022/10/07 03:32:48;;;;;;;6.18;2.40;;;11.90;99.90;;;;;;5076800;28;20527;-31
2022/10/07 03:35:14;;;;;;;7.83;2.50;;;11.80;99.90;;;;;;5087982;28;20430;-36
2022/10/07 03:37:40;;;;;;;10.85;2.35;;;11.80;99.90;;;;;;5075591;28;20032;-33
2022/10/07 03:40:06;;;;;;;10.30;2.97;;;11.80;99.90;;;;;;5085718;28;20499;-35
2022/10/07 03:42:32;;;;;;;7.65;2.45;;;11.70;99.90;;;;;;5078167;28;20033;-32
2022/10/07 03:44:58;;;;;;;14.00;2.65;;;11.80;99.90;;;;;;5079158;28;20063;-37
2022/10/07 03:47:23;;;;;;;12.98;2.50;;;11.70;99.90;;;;;;5074194;28;20060;-38
2022/10/07 03:49:49;;;;;;;9.15;2.50;;;11.80;99.90;;;;;;5086976;28;20101;-29
2022/10/07 03:52:15;;;;;;;6.13;2.10;;;11.70;99.90;;;;;;5090650;28;20065;-37
2022/10/07 03:54:40;;;;;;;9.02;2.97;;;11.80;99.90;;;;;;5088723;28;20158;-30
2022/10/07 03:57:48;;;;;;;9.38;2.58;;;11.80;99.90;;;;;;5085307;28;20376;-33
2022/10/07 03:59:52;;;;;;;13.90;2.97;;;11.80;99.90;;;;;;5086894;28;20020;-42
2022/10/07 04:02:19;;;;;;;13.45;3.35;;;11.80;99.90;;;;;;5067897;28;20032;-41
2022/10/07 04:04:45;;;;;;;7.22;2.33;;;11.80;99.90;;;;;;5090969;28;20483;-40
2022/10/07 04:07:11;;;;;;;13.38;2.45;;;11.70;99.90;;;;;;5091941;28;20031;-39
2022/10/07 04:09:36;;;;;;;12.95;2.70;;;11.70;99.90;;;;;;5086018;28;20079;-36
2022/10/07 04:12:03;;;;;;;13.00;2.45;;;11.70;99.90;;;;;;5075121;28;20487;-37
2022/10/07 04:14:28;;;;;;;8.07;2.40;;;11.60;99.90;;;;;;5091068;28;20490;-36
2022/10/07 04:16:54;;;;;;;9.18;2.55;;;11.70;99.90;;;;;;5086706;28;20032;-31
2022/10/07 04:19:20;;;;;;;6.70;2.67;;;11.70;99.90;;;;;;5076948;28;20411;-34
2022/10/07 04:21:45;;;;;;;12.95;2.65;;;11.70;99.90;;;;;;5091698;28;20380;-32
2022/10/07 04:24:11;;;;;;;8.48;2.13;;;11.70;99.90;;;;;;5090972;28;20392;-32
2022/10/07 04:26:36;;;;;;;6.20;2.28;;;11.70;99.90;;;;;;5096010;28;20020;-34
2022/10/07 04:29:02;;;;;;;8.32;2.45;;;11.70;99.90;;;;;;5077326;28;20025;-37
2022/10/07 04:31:27;;;;;;;12.88;3.05;;;11.70;99.90;;;;;;5085868;28;20530;-33
2022/10/07 04:34:11;;;;;;;15.20;3.08;;;11.70;99.90;;;;;;5088113;28;20059;-39
2022/10/07 04:36:37;;;;;;;5.35;2.30;;;11.70;99.90;;;;;;5094290;28;20521;-40
2022/10/07 04:39:03;;;;;;;13.60;3.33;;;11.60;99.90;;;;;;5094588;28;20028;-39
2022/10/07 04:41:28;;;;;;;11.77;2.75;;;11.60;99.90;;;;;;5068514;28;20060;-40
2022/10/07 04:43:54;;;;;;;12.10;2.50;;;11.70;99.90;;;;;;5092587;28;20383;-44
2022/10/07 04:46:20;;;;;;;11.82;2.65;;;11.70;99.90;;;;;;5081195;28;20583;-40
2022/10/07 04:48:45;;;;;;;16.40;2.22;;;11.70;99.90;;;;;;5094110;28;20491;-39
2022/10/07 04:51:11;;;;;;;10.73;2.00;;;11.60;99.90;;;;;;5085903;28;20020;-40
2022/10/07 04:53:38;;;;;;;10.30;2.20;;;11.60;99.90;;;;;;5057233;28;20047;-34
2022/10/07 04:56:04;;;;;;;11.40;2.90;;;11.70;99.90;;;;;;5090645;28;20472;-36
2022/10/07 04:58:30;;;;;;;7.43;2.78;;;11.70;99.90;;;;;;5086708;28;20017;-35
2022/10/07 05:00:57;;;;;;;7.32;2.03;;;11.70;99.90;;;;;;5077645;28;20385;-36
2022/10/07 05:03:25;;;;;;;10.53;2.60;;;11.60;99.90;;;;;;5075175;28;20078;-31
2022/10/07 05:05:52;;;;;;;;;;;11.60;99.90;;;;;;5084376;28;20034;-35
2022/10/07 05:08:23;;;;;;;8.50;2.65;;;11.60;99.90;;;;;;5095171;28;20488;-32
2022/10/07 05:10:56;;;;;;;14.30;2.35;;;11.60;99.90;;;;;;5093233;28;20027;-31
2022/10/07 05:13:24;;;;;;;10.02;3.17;;;11.60;99.90;;;;;;5082010;28;20499;-30
2022/10/07 05:15:52;;;;;;;10.32;2.22;;;11.60;99.90;;;;;;5089170;28;20104;-31
2022/10/07 05:18:19;;;;;;;11.10;2.38;;;11.60;99.90;;;;;;5090199;28;20023;-30
2022/10/07 05:20:47;;;;;;;14.05;2.42;;;11.60;99.90;;;;;;5081187;28;20021;-36
2022/10/07 05:23:17;;;;;;;11.27;2.50;;;11.70;99.90;;;;;;5084758;28;20514;-38
2022/10/07 05:25:43;;;;;;;11.68;2.65;;;11.70;99.90;;;;;;5084944;28;20031;-38
2022/10/07 05:28:13;;;;;;;9.27;3.15;;;11.70;99.90;;;;;;5073433;28;20504;-37
2022/10/07 05:30:39;;;;;;;10.60;2.47;;;11.70;99.90;;;;;;5060853;28;20129;-37
2022/10/07 05:33:08;;;;;;;15.38;2.88;;;11.70;99.90;;;;;;5083815;28;20044;-39
2022/10/07 05:35:34;;;;;;;9.90;2.20;;;11.70;99.90;;;;;;5079776;28;20027;-44
2022/10/07 05:38:00;;;;;;;9.82;1.95;;;11.80;99.90;;;;;;5089239;28;20016;-35
2022/10/07 05:40:26;;;;;;;10.40;2.60;;;11.80;99.90;;;;;;5077347;28;20077;-36
2022/10/07 05:42:52;;;;;;;6.78;2.85;;;11.80;99.90;;;;;;5080423;28;20020;-40
2022/10/07 05:45:18;;;;;;;11.10;2.42;;;11.80;99.90;;;;;;5083637;28;20025;-40
2022/10/07 05:47:44;;;;;;;15.60;2.25;;;11.80;99.90;;;;;;5081164;28;20032;-40
2022/10/07 05:50:10;;;;;;;5.22;1.98;;;11.90;99.90;;;;;;5088874;28;20499;-46
2022/10/07 05:52:37;;;;;;;9.13;2.47;;;11.90;99.90;;;;;;5094164;28;20073;-39
2022/10/07 05:55:03;;;;;;;6.15;2.28;;;11.90;99.90;;;;;;5086239;28;20454;-38
2022/10/07 05:57:29;;;;;;;10.70;1.95;;;12.00;99.90;;;;;;5093957;28;20476;-43
2022/10/07 05:59:57;;;;;;;7.90;2.05;;;12.00;99.90;;;;;;5085518;28;20023;-41
2022/10/07 06:02:23;;;;;;;11.63;2.20;;;12.00;99.90;;;;;;5086469;28;20476;-38
2022/10/07 06:04:49;;;;;;;5.57;1.63;;;12.00;99.90;;;;;;5090100;28;20016;-39
2022/10/07 06:07:15;;;;;;;9.48;2.47;;;12.00;99.90;;;;;;5092082;28;20032;-39
2022/10/07 06:15:09;;;;;;;9.70;2.38;;;12.10;99.90;;;;;;5077379;28;20039;-39
2022/10/07 06:17:40;;;;;;;8.65;2.30;;;12.10;99.90;;;;;;5093566;28;20058;-38
2022/10/07 06:22:54;;;;;;;6.70;2.83;;;12.10;99.90;;;;;;5084416;28;20540;-33
2022/10/07 06:25:20;;;;;;;14.07;2.00;;;12.10;99.90;;;;;;5088148;28;20031;-34
2022/10/07 06:27:46;;;;;;;9.85;3.10;;;12.10;99.90;;;;;;5076291;28;20373;-37
2022/10/07 06:30:12;;;;;;;7.80;2.47;;;12.10;99.90;;;;;;5075905;28;20021;-41
2022/10/07 06:32:38;;;;;;;8.93;2.08;;;12.20;99.90;;;;;;5084145;28;20470;-33
2022/10/07 06:35:04;;;;;;;5.03;2.20;;;12.20;99.90;;;;;;5070578;28;20064;-43
2022/10/07 06:37:30;;;;;;;11.10;2.65;;;12.20;99.90;;;;;;5093803;28;20020;-39
2022/10/07 06:39:56;;;;;;;12.13;2.05;;;12.10;99.90;;;;;;5092648;28;20024;-40
2022/10/07 06:42:22;;;;;;;15.85;2.42;;;12.10;99.90;;;;;;5093854;28;20024;-42
2022/10/07 06:44:48;;;;;;;7.22;1.90;;;12.10;99.90;;;;;;5091808;28;20020;-40
2022/10/07 06:47:13;;;;;;;19.50;2.30;;;12.10;99.90;;;;;;5090909;28;20109;-41
2022/10/07 06:49:39;;;;;;;11.20;2.55;;;12.10;99.90;;;;;;5093612;28;20063;-39
2022/10/07 06:52:04;;;;;;;26.50;3.72;;;12.20;99.90;;;;;;5092204;28;20088;-39
2022/10/07 06:54:30;;;;;;;13.82;2.78;;;12.20;99.90;;;;;;5084548;28;20028;-39
2022/10/07 06:56:56;;;;;;;11.02;1.88;;;12.20;99.90;;;;;;5075883;28;20020;-40
2022/10/07 06:59:21;;;;;;;11.68;2.42;;;12.30;99.90;;;;;;5064751;28;20020;-40
2022/10/07 07:01:47;;;;;;;10.20;2.50;;;12.30;99.90;;;;;;5093636;28;20012;-46
2022/10/07 07:04:13;;;;;;;11.45;1.92;;;12.30;99.90;;;;;;5068505;28;20044;-40
2022/10/07 07:06:39;;;;;;;8.18;2.10;;;12.40;99.90;;;;;;5081152;28;20086;-41
2022/10/07 07:09:04;;;;;;;15.02;2.40;;;12.40;99.90;;;;;;5088905;28;20032;-37
2022/10/07 07:11:36;;;;;;;10.27;2.10;;;12.40;99.90;;;;;;5089706;28;20067;-39
2022/10/07 07:14:12;;;;;;;8.77;2.40;;;12.50;99.90;;;;;;5089042;28;20039;-32
2022/10/07 07:16:38;;;;;;;10.10;2.15;;;12.50;99.90;;;;;;5089827;28;20035;-32
2022/10/07 07:19:07;;;;;;;12.98;1.95;;;12.50;99.90;;;;;;5083664;28;20016;-34
2022/10/07 07:21:34;;;;;;;13.20;2.20;;;12.60;99.90;;;;;;5079772;28;20020;-33
2022/10/07 07:24:01;;;;;;;16.45;3.13;;;12.50;99.90;;;;;;5079416;28;20453;-35
2022/10/07 07:26:27;;;;;;;7.78;3.40;;;12.60;99.90;;;;;;5075525;28;20032;-56
2022/10/07 07:28:53;;;;;;;29.90;2.70;;;12.70;99.90;;;;;;5089484;28;20092;-31
2022/10/07 07:31:19;;;;;;;14.85;2.63;;;12.70;99.90;;;;;;5088076;28;20048;-35
2022/10/07 07:33:51;;;;;;;8.88;2.47;;;12.70;99.90;;;;;;5074406;28;20373;-35
2022/10/07 07:36:18;;;;;;;7.63;2.10;;;12.70;99.90;;;;;;5078601;28;20020;-30
2022/10/07 07:38:51;;;;;;;9.50;1.98;;;12.80;99.90;;;;;;5090960;28;20401;-42
2022/10/07 07:41:18;;;;;;;12.70;2.53;;;12.90;99.90;;;;;;5092030;28;20472;-33
2022/10/07 07:43:50;;;;;;;12.37;2.40;;;13.00;99.90;;;;;;5082174;28;20032;-33
2022/10/07 07:46:17;;;;;;;13.23;2.15;;;13.00;99.90;;;;;;5086859;28;20549;-35
2022/10/07 07:48:43;;;;;;;7.47;1.63;;;13.00;99.90;;;;;;5092992;28;20050;-34
2022/10/07 07:51:09;;;;;;;14.10;2.03;;;13.10;99.90;;;;;;5091732;28;20111;-35
2022/10/07 07:53:36;;;;;;;7.53;1.75;;;13.20;99.90;;;;;;5091279;28;20047;-30
2022/10/07 07:56:02;;;;;;;12.02;1.90;;;13.20;99.90;;;;;;5090734;28;20024;-30
2022/10/07 07:58:28;;;;;;;13.35;2.35;;;13.30;99.90;;;;;;5093698;28;20028;-35
2022/10/07 08:01:07;;;;;;;10.60;1.92;;;13.40;99.90;;;;;;5096788;28;20498;-34
2022/10/07 08:03:36;;;;;;;9.45;2.05;;;13.40;99.90;;;;;;5096780;28;20039;-31
2022/10/07 08:06:03;;;;;;;9.00;1.60;;;13.50;99.90;;;;;;5089487;28;20020;-30
2022/10/07 08:08:29;;;;;;;4.63;1.65;;;13.40;99.90;;;;;;5089721;28;20476;-35
2022/10/07 08:10:55;;;;;;;8.77;2.00;;;13.40;99.90;;;;;;5096897;28;20492;-33
2022/10/07 08:13:21;;;;;;;11.93;2.65;;;13.40;99.90;;;;;;5096494;28;20103;-33
2022/10/07 08:15:47;;;;;;;14.43;2.10;;;13.60;99.90;;;;;;5096619;28;20104;-32
2022/10/07 08:18:13;;;;;;;8.73;1.95;;;13.70;99.90;;;;;;5096745;28;20024;-31
2022/10/07 08:20:38;;;;;;;16.13;2.95;;;13.80;99.90;;;;;;5092248;28;20173;-35
2022/10/07 08:23:05;;;;;;;14.57;2.40;;;13.90;99.90;;;;;;5092081;28;20028;-31
2022/10/07 08:25:31;;;;;;;9.00;1.75;;;14.00;99.90;;;;;;5096398;28;20016;-33
2022/10/07 08:27:57;;;;;;;10.57;1.83;;;14.10;99.90;;;;;;5096297;28;20428;-31
2022/10/07 08:30:23;;;;;;;11.02;1.77;;;14.20;99.90;;;;;;5096159;28;20053;-30
2022/10/07 08:32:49;;;;;;;10.27;1.63;;;14.30;99.90;;;;;;5096005;28;20048;-32
2022/10/07 08:35:15;;;;;;;16.05;1.98;;;14.40;99.90;;;;;;5096209;28;20085;-31
2022/10/07 08:37:40;;;;;;;15.07;2.25;;;14.50;99.90;;;;;;5094112;28;20063;-32
2022/10/07 08:40:12;;;;;;;13.70;2.55;;;14.50;99.90;;;;;;5096021;28;20081;-30
2022/10/07 08:42:40;;;;;;;17.35;2.92;;;14.60;99.90;;;;;;5077934;28;20106;-31
2022/10/07 08:45:09;;;;;;;4.75;1.55;;;14.70;99.90;;;;;;5095968;28;20028;-32
2022/10/07 08:47:44;;;;;;;17.60;2.38;;;14.60;99.90;;;;;;5095910;28;20141;-35
2022/10/07 08:50:24;;;;;;;18.75;2.20;;;14.70;99.90;;;;;;5095605;28;20095;-33
2022/10/07 08:53:02;;;;;;;7.32;1.65;;;14.80;99.90;;;;;;5075589;28;20492;-31
2022/10/07 08:55:41;;;;;;;7.47;2.15;;;15.00;99.90;;;;;;5075721;28;20020;-34
2022/10/07 08:58:25;;;;;;;9.27;3.05;;;15.10;99.90;;;;;;5075105;28;20086;-34
2022/10/07 09:01:27;;;;;;;9.88;2.35;;;15.10;99.90;;;;;;5080478;28;20024;-34
2022/10/07 09:04:14;;;;;;;11.27;2.25;;;15.00;99.90;;;;;;5094965;28;20036;-35
2022/10/07 09:06:46;;;;;;;9.57;1.67;;;15.00;99.90;;;;;;5094853;28;20020;-31
2022/10/07 09:09:18;;;;;;;9.35;3.13;;;15.20;99.90;;;;;;5095476;28;20027;-34
2022/10/07 09:11:46;;;;;;;12.38;1.85;;;15.30;99.90;;;;;;5076473;28;20503;-35
2022/10/07 09:14:32;;;;;;;9.45;1.55;;;15.30;99.90;;;;;;5095258;28;20023;-30
2022/10/07 09:17:25;;;;;;;12.13;2.60;;;15.40;99.90;;;;;;5095281;28;20476;-32
2022/10/07 09:20:00;;;;;;;9.90;1.77;;;15.50;99.90;;;;;;5076272;28;20119;-38
2022/10/07 09:22:33;;;;;;;10.10;2.00;;;15.50;99.90;;;;;;5094152;28;20028;-30
2022/10/07 09:25:20;;;;;;;12.85;3.20;;;15.50;99.90;;;;;;5095093;28;20115;-33
2022/10/07 09:27:47;;;;;;;8.88;1.88;;;15.60;99.90;;;;;;5095237;28;20020;-31
2022/10/07 09:30:14;;;;;;;9.60;2.13;;;15.60;99.90;;;;;;5094908;28;20024;-33
2022/10/07 09:32:44;;;;;;;9.27;2.53;;;15.60;99.90;;;;;;5094725;28;20642;-32
2022/10/07 09:35:20;;;;;;;10.00;2.45;;;15.60;99.90;;;;;;5095350;28;20485;-36
2022/10/07 09:38:00;;;;;;;20.07;2.67;;;15.60;99.90;;;;;;5093651;28;20031;-39
2022/10/07 09:41:30;;;;;;;8.88;1.65;;;15.60;99.90;;;;;;5086807;28;20506;-39
2022/10/07 09:43:30;;;;;;;11.23;1.90;;;15.60;99.90;;;;;;5070168;28;20063;-38
2022/10/07 09:45:57;;;;;;;20.67;2.85;;;15.60;99.90;;;;;;5074644;28;20017;-40
2022/10/07 09:48:32;;;;;;;11.73;1.90;;;15.60;99.90;;;;;;5074726;28;20120;-41
2022/10/07 09:51:15;;;;;;;7.85;2.08;;;15.80;99.90;;;;;;5074361;28;20419;-40
2022/10/07 09:53:58;;;;;;;7.82;1.60;;;15.80;99.90;;;;;;5074355;28;20039;-36
2022/10/07 09:56:45;;;;;;;8.40;1.70;;;15.90;99.90;;;;;;5081919;28;20027;-34
2022/10/07 09:59:16;;;;;;;7.00;1.88;;;15.90;99.90;;;;;;5094503;28;20028;-32
2022/10/07 10:01:52;;;;;;;12.32;1.85;;;16.00;99.90;;;;;;5093708;28;20496;-40
2022/10/07 10:04:29;;;;;;;8.40;2.67;;;16.10;99.90;;;;;;5094441;28;20020;-38
2022/10/07 10:07:03;;;;;;;13.73;2.53;;;16.20;99.90;;;;;;5093553;28;20036;-38
2022/10/07 10:09:31;;;;;;;16.70;2.75;;;16.30;99.90;;;;;;5084814;28;20028;-39
2022/10/07 10:12:24;;;;;;;11.88;2.10;;;16.40;99.90;;;;;;5088984;28;20313;-40
2022/10/07 10:14:53;;;;;;;15.13;2.60;;;16.50;99.90;;;;;;5070584;28;20072;-40
2022/10/07 10:17:35;;;;;;;11.88;1.80;;;16.50;99.90;;;;;;5082186;28;20031;-40
2022/10/07 10:20:29;;;;;;;8.40;1.70;;;16.60;99.90;;;;;;5085100;28;20108;-32
2022/10/07 10:22:56;;;;;;;8.70;1.70;;;16.80;99.90;;;;;;5074687;28;20063;-40
2022/10/07 10:28:47;;;;;;;11.68;2.30;;;17.20;99.90;;;;;;5077224;28;20050;-40
2022/10/07 10:31:38;;;;;;;8.63;2.28;;;17.20;99.90;;;;;;5080580;28;20052;-38
2022/10/07 10:34:08;;;;;;;11.13;1.88;;;17.20;99.90;;;;;;5088901;28;20480;-32
2022/10/07 10:36:41;;;;;;;10.52;1.67;;;17.30;99.90;;;;;;5083325;28;20016;-41
2022/10/07 10:39:15;;;;;;;10.85;2.50;;;17.40;99.90;;;;;;5080071;28;20484;-37
2022/10/07 10:41:47;;;;;;;14.40;2.78;;;17.50;99.90;;;;;;5087043;28;20021;-40
2022/10/07 10:44:54;;;;;;;10.70;2.22;;;17.50;99.90;;;;;;5073554;28;20036;-38
2022/10/07 10:47:20;;;;;;;;;;;17.60;99.90;;;;;;5040101;28;20043;-39
2022/10/07 10:50:13;;;;;;;10.00;2.03;;;17.70;99.90;;;;;;5055258;28;19904;-39
2022/10/07 10:53:01;;;;;;;15.73;2.20;;;17.70;99.90;;;;;;5088398;28;20080;-41
2022/10/07 10:55:53;;;;;;;7.82;1.80;;;17.70;99.90;;;;;;5093531;28;20058;-40
2022/10/07 10:58:36;;;;;;;9.43;2.22;;;17.80;99.90;;;;;;5087302;28;20020;-47
2022/10/07 11:01:26;;;;;;;10.05;1.40;;;17.70;99.90;;;;;;5073757;28;20396;-36
2022/10/07 11:04:03;;;;;;;10.93;1.55;;;17.70;99.90;;;;;;5073424;28;20105;-33
2022/10/07 11:06:33;;;;;;;9.43;2.00;;;17.70;99.90;;;;;;5076075;28;20465;-34
2022/10/07 11:09:00;;;;;;;7.57;2.00;;;17.60;99.90;;;;;;5073263;28;20759;-38
2022/10/07 11:11:27;;;;;;;12.82;1.77;;;17.60;99.90;;;;;;5073073;28;20017;-33
2022/10/07 11:14:19;;;;;;;3.38;2.03;;;17.70;99.90;;;;;;5072929;28;20484;-34
2022/10/07 11:17:08;;;;;;;9.43;1.55;;;17.70;99.90;;;;;;5072533;28;20037;-38
2022/10/07 11:19:42;;;;;;;10.40;2.13;;;17.80;99.90;;;;;;5072465;28;20060;-34
2022/10/07 11:22:15;;;;;;;7.65;1.67;;;17.80;99.90;;;;;;5079125;28;20488;-31
2022/10/07 11:24:45;;;;;;;8.52;1.45;;;17.70;99.90;;;;;;5093025;28;20024;-33
2022/10/07 11:27:13;;;;;;;14.52;2.63;;;17.70;99.90;;;;;;5074930;28;20073;-33
2022/10/07 11:29:58;;;;;;;14.82;2.42;;;17.70;99.90;;;;;;5093268;28;20468;-31
2022/10/07 11:32:28;;;;;;;14.90;1.92;;;17.80;99.90;;;;;;5074283;28;20519;-32
2022/10/07 11:35:32;;;;;;;9.25;1.23;;;17.80;99.90;;;;;;5092355;28;20047;-33
2022/10/07 11:38:12;;;;;;;9.02;1.65;;;17.80;99.90;;;;;;5090370;28;20024;-31
2022/10/07 11:41:19;;;;;;;6.93;1.40;;;17.80;99.90;;;;;;5089704;28;20484;-34
2022/10/07 11:43:58;;;;;;;5.28;1.52;;;17.80;99.90;;;;;;5093114;28;20483;-33
2022/10/07 11:46:24;;;;;;;5.60;1.45;;;17.80;99.90;;;;;;5092912;28;20028;-38
2022/10/07 11:49:14;;;;;;;6.57;1.88;;;17.70;99.90;;;;;;5092722;28;20043;-34
2022/10/07 11:52:25;;;;;;;9.93;2.22;;;17.80;99.90;;;;;;5091759;28;20044;-36
2022/10/07 11:55:04;;;;;;;12.20;1.80;;;17.80;99.90;;;;;;5043037;28;20048;-33
2022/10/07 11:57:33;;;;;;;12.13;1.75;;;17.90;99.90;;;;;;5072596;28;20029;-33
2022/10/07 12:00:07;;;;;;;13.80;1.50;;;18.00;99.90;;;;;;5072526;28;20078;-32
2022/10/07 12:02:39;;;;;;;4.18;1.38;;;18.10;99.90;;;;;;5072836;28;20502;-38
2022/10/07 12:05:06;;;;;;;5.88;1.52;;;18.20;99.90;;;;;;5072483;28;20021;-40
2022/10/07 12:07:56;;;;;;;5.88;1.40;;;18.20;99.90;;;;;;5079576;28;20020;-31
2022/10/07 12:10:32;;;;;;;11.73;1.27;;;18.20;99.90;;;;;;5092664;28;20028;-32
2022/10/07 12:13:19;;;;;;;9.48;1.20;;;18.10;99.90;;;;;;5092543;28;20032;-39
2022/10/07 12:15:46;;;;;;;11.55;1.52;;;18.20;99.90;;;;;;5048081;28;20039;-32
2022/10/07 12:18:15;;;;;;;12.10;1.55;;;18.20;99.90;;;;;;5069310;28;20024;-33
2022/10/07 12:20:45;;;;;;;10.43;1.30;;;18.30;99.90;;;;;;5092781;28;20027;-33
2022/10/07 12:23:19;;;;;;;4.68;1.02;;;18.20;99.90;;;;;;5090332;28;20028;-31
2022/10/07 12:25:46;;;;;;;7.55;1.40;;;18.10;99.90;;;;;;5072606;28;20074;-40
2022/10/07 12:28:25;;;;;;;6.30;1.33;;;18.00;99.90;;;;;;5078628;28;20523;-40
2022/10/07 12:30:56;;;;;;;8.77;2.22;;;18.00;99.90;;;;;;5071967;28;20032;-43
2022/10/07 12:33:32;;;;;;;6.22;1.48;;;18.00;99.90;;;;;;5072374;28;20485;-40
2022/10/07 12:35:58;;;;;;;9.10;1.27;;;18.00;99.90;;;;;;5072329;28;20029;-39
2022/10/07 12:38:25;;;;;;;7.25;1.55;;;18.00;99.90;;;;;;5072125;28;20108;-39
2022/10/07 12:41:13;;;;;;;;;;;18.10;99.90;;;;;;5083238;28;20409;-40
2022/10/07 12:44:15;;;;;;;5.43;1.30;;;18.10;99.90;;;;;;5091900;28;20355;-41
2022/10/07 12:46:49;;;;;;;4.20;1.65;;;18.10;99.90;;;;;;5075428;28;20132;-41
2022/10/07 12:49:20;;;;;;;12.82;2.00;;;18.30;99.90;;;;;;5063361;28;20025;-40
2022/10/07 12:51:46;;;;;;;9.52;1.40;;;18.30;99.90;;;;;;5076145;28;20040;-39
2022/10/07 12:54:19;;;;;;;11.98;1.50;;;18.40;99.90;;;;;;5086797;28;20028;-40
2022/10/07 12:56:46;;;;;;;7.35;1.55;;;18.40;99.90;;;;;;5080194;28;20074;-42
2022/10/07 12:59:49;;;;;;;10.00;1.63;;;18.40;99.90;;;;;;5086916;28;20035;-40
2022/10/07 13:02:49;;;;;;;11.35;2.05;;;18.50;99.90;;;;;;5093467;28;20021;-40
2022/10/07 13:05:23;;;;;;;6.38;2.05;;;18.50;99.90;;;;;;5084970;28;20032;-43
2022/10/07 13:08:07;;;;;;;5.70;1.48;;;18.40;99.90;;;;;;5088296;28;20609;-40
2022/10/07 13:10:50;;;;;;;12.68;1.67;;;18.30;99.90;;;;;;5078380;28;20044;-33
2022/10/07 13:13:28;;;;;;;12.07;1.67;;;18.30;99.90;;;;;;5090324;28;20036;-33
2022/10/07 13:16:23;;;;;;;3.78;1.30;;;18.30;99.90;;;;;;5093555;28;20115;-31
2022/10/07 13:19:02;;;;;;;14.80;2.33;;;18.20;99.90;;;;;;5066081;28;20068;-44
2022/10/07 13:21:40;;;;;;;21.38;7.78;;;18.10;99.90;;;;;;5094595;28;20503;-35